sensor_id;sensor_type;location;lat;lon;timestamp;P1;durP1;ratioP1;P2;durP2;ratioP2
46284;SDS011;32018;59.182;18.148;2024-02-16T00:00:38;6.65;;;6.20;;
46284;SDS011;32018;59.182;18.148;2024-02-16T00:03:04;7.45;;;6.85;;
46284;SDS011;32018;59.182;18.148;2024-02-16T00:05:29;6.65;;;6.15;;
46284;SDS011;32018;59.182;18.148;2024-02-16T00:07:54;7.15;;;6.65;;
46284;SDS011;32018;59.182;18.148;2024-02-16T00:10:20;6.55;;;6.05;;
46284;SDS011;32018;59.182;18.148;2024-02-16T00:12:46;6.60;;;6.10;;
46284;SDS011;32018;59.182;18.148;2024-02-16T00:15:12;7.38;;;6.85;;
46284;SDS011;32018;59.182;18.148;2024-02-16T00:17:37;7.72;;;7.13;;
46284;SDS011;32018;59.182;18.148;2024-02-16T00:20:03;6.50;;;6.00;;
46284;SDS011;32018;59.182;18.148;2024-02-16T00:22:28;6.05;;;5.57;;
46284;SDS011;32018;59.182;18.148;2024-02-16T00:24:54;7.07;;;6.57;;
46284;SDS011;32018;59.182;18.148;2024-02-16T00:27:19;7.00;;;6.50;;
46284;SDS011;32018;59.182;18.148;2024-02-16T00:29:44;6.03;;;5.63;;
46284;SDS011;32018;59.182;18.148;2024-02-16T00:32:11;7.03;;;6.50;;
46284;SDS011;32018;59.182;18.148;2024-02-16T00:34:37;5.97;;;5.57;;
46284;SDS011;32018;59.182;18.148;2024-02-16T00:37:04;6.30;;;5.90;;
46284;SDS011;32018;59.182;18.148;2024-02-16T00:39:34;7.23;;;6.67;;
46284;SDS011;32018;59.182;18.148;2024-02-16T00:41:59;5.57;;;5.18;;
46284;SDS011;32018;59.182;18.148;2024-02-16T00:44:24;5.68;;;5.20;;
46284;SDS011;32018;59.182;18.148;2024-02-16T00:46:50;6.00;;;5.50;;
46284;SDS011;32018;59.182;18.148;2024-02-16T00:49:15;7.43;;;6.82;;
46284;SDS011;32018;59.182;18.148;2024-02-16T00:51:40;5.60;;;5.20;;
46284;SDS011;32018;59.182;18.148;2024-02-16T00:54:05;6.15;;;5.65;;
46284;SDS011;32018;59.182;18.148;2024-02-16T00:56:31;5.88;;;5.47;;
46284;SDS011;32018;59.182;18.148;2024-02-16T00:58:57;6.45;;;6.00;;
46284;SDS011;32018;59.182;18.148;2024-02-16T01:01:22;6.00;;;5.60;;
46284;SDS011;32018;59.182;18.148;2024-02-16T01:03:48;6.82;;;6.32;;
46284;SDS011;32018;59.182;18.148;2024-02-16T01:06:13;6.03;;;5.53;;
46284;SDS011;32018;59.182;18.148;2024-02-16T01:08:38;5.93;;;5.53;;
46284;SDS011;32018;59.182;18.148;2024-02-16T01:11:04;6.15;;;5.65;;
46284;SDS011;32018;59.182;18.148;2024-02-16T01:13:29;5.82;;;5.43;;
46284;SDS011;32018;59.182;18.148;2024-02-16T01:15:54;6.35;;;5.85;;
46284;SDS011;32018;59.182;18.148;2024-02-16T01:18:19;6.10;;;5.68;;
46284;SDS011;32018;59.182;18.148;2024-02-16T01:20:45;5.93;;;5.50;;
46284;SDS011;32018;59.182;18.148;2024-02-16T01:23:10;6.10;;;5.70;;
46284;SDS011;32018;59.182;18.148;2024-02-16T01:25:35;6.40;;;5.90;;
46284;SDS011;32018;59.182;18.148;2024-02-16T01:28:00;6.85;;;6.35;;
46284;SDS011;32018;59.182;18.148;2024-02-16T01:30:26;5.70;;;5.30;;
46284;SDS011;32018;59.182;18.148;2024-02-16T01:32:51;6.60;;;6.10;;
46284;SDS011;32018;59.182;18.148;2024-02-16T01:35:16;5.30;;;4.90;;
46284;SDS011;32018;59.182;18.148;2024-02-16T01:37:42;5.60;;;5.25;;
46284;SDS011;32018;59.182;18.148;2024-02-16T01:40:08;7.55;;;6.95;;
46284;SDS011;32018;59.182;18.148;2024-02-16T01:42:38;5.15;;;4.85;;
46284;SDS011;32018;59.182;18.148;2024-02-16T01:45:04;6.03;;;5.60;;
46284;SDS011;32018;59.182;18.148;2024-02-16T01:47:29;5.50;;;5.10;;
46284;SDS011;32018;59.182;18.148;2024-02-16T01:49:54;5.45;;;5.05;;
46284;SDS011;32018;59.182;18.148;2024-02-16T01:52:20;5.45;;;5.00;;
46284;SDS011;32018;59.182;18.148;2024-02-16T01:54:45;5.75;;;5.35;;
46284;SDS011;32018;59.182;18.148;2024-02-16T01:57:10;5.95;;;5.55;;
46284;SDS011;32018;59.182;18.148;2024-02-16T01:59:37;5.63;;;5.22;;
46284;SDS011;32018;59.182;18.148;2024-02-16T02:02:05;5.22;;;4.80;;
46284;SDS011;32018;59.182;18.148;2024-02-16T02:04:30;6.05;;;5.65;;
46284;SDS011;32018;59.182;18.148;2024-02-16T02:06:55;6.25;;;5.75;;
46284;SDS011;32018;59.182;18.148;2024-02-16T02:09:20;5.18;;;4.80;;
46284;SDS011;32018;59.182;18.148;2024-02-16T02:11:46;6.18;;;5.75;;
46284;SDS011;32018;59.182;18.148;2024-02-16T02:14:11;7.20;;;6.70;;
46284;SDS011;32018;59.182;18.148;2024-02-16T02:16:36;4.80;;;4.50;;
46284;SDS011;32018;59.182;18.148;2024-02-16T02:19:02;5.65;;;5.25;;
46284;SDS011;32018;59.182;18.148;2024-02-16T02:21:28;7.03;;;6.50;;
46284;SDS011;32018;59.182;18.148;2024-02-16T02:23:53;5.25;;;4.85;;
46284;SDS011;32018;59.182;18.148;2024-02-16T02:26:18;5.40;;;5.00;;
46284;SDS011;32018;59.182;18.148;2024-02-16T02:28:43;5.25;;;4.85;;
46284;SDS011;32018;59.182;18.148;2024-02-16T02:31:08;5.90;;;5.50;;
46284;SDS011;32018;59.182;18.148;2024-02-16T02:33:34;5.45;;;5.05;;
46284;SDS011;32018;59.182;18.148;2024-02-16T02:35:59;5.88;;;5.47;;
46284;SDS011;32018;59.182;18.148;2024-02-16T02:38:24;4.95;;;4.55;;
46284;SDS011;32018;59.182;18.148;2024-02-16T02:40:51;7.03;;;6.53;;
46284;SDS011;32018;59.182;18.148;2024-02-16T02:43:16;5.45;;;5.05;;
46284;SDS011;32018;59.182;18.148;2024-02-16T02:45:43;4.53;;;4.22;;
46284;SDS011;32018;59.182;18.148;2024-02-16T02:48:08;4.88;;;4.57;;
46284;SDS011;32018;59.182;18.148;2024-02-16T02:50:33;5.63;;;5.22;;
46284;SDS011;32018;59.182;18.148;2024-02-16T02:52:59;5.60;;;5.20;;
46284;SDS011;32018;59.182;18.148;2024-02-16T02:55:24;5.22;;;4.93;;
46284;SDS011;32018;59.182;18.148;2024-02-16T02:57:49;5.75;;;5.35;;
46284;SDS011;32018;59.182;18.148;2024-02-16T03:00:14;6.18;;;5.78;;
46284;SDS011;32018;59.182;18.148;2024-02-16T03:02:40;5.40;;;5.00;;
46284;SDS011;32018;59.182;18.148;2024-02-16T03:05:06;5.35;;;4.97;;
46284;SDS011;32018;59.182;18.148;2024-02-16T03:07:34;4.40;;;4.10;;
46284;SDS011;32018;59.182;18.148;2024-02-16T03:09:59;4.72;;;4.43;;
46284;SDS011;32018;59.182;18.148;2024-02-16T03:12:25;5.32;;;4.93;;
46284;SDS011;32018;59.182;18.148;2024-02-16T03:14:50;5.30;;;4.90;;
46284;SDS011;32018;59.182;18.148;2024-02-16T03:17:15;5.38;;;4.97;;
46284;SDS011;32018;59.182;18.148;2024-02-16T03:19:40;5.57;;;4.95;;
46284;SDS011;32018;59.182;18.148;2024-02-16T03:22:06;4.80;;;4.50;;
46284;SDS011;32018;59.182;18.148;2024-02-16T03:24:31;4.85;;;4.55;;
46284;SDS011;32018;59.182;18.148;2024-02-16T03:26:56;4.78;;;4.47;;
46284;SDS011;32018;59.182;18.148;2024-02-16T03:29:21;4.47;;;4.18;;
46284;SDS011;32018;59.182;18.148;2024-02-16T03:31:47;4.30;;;4.00;;
46284;SDS011;32018;59.182;18.148;2024-02-16T03:34:12;4.82;;;4.53;;
46284;SDS011;32018;59.182;18.148;2024-02-16T03:36:37;4.80;;;4.50;;
46284;SDS011;32018;59.182;18.148;2024-02-16T03:39:02;4.15;;;3.88;;
46284;SDS011;32018;59.182;18.148;2024-02-16T03:41:27;4.60;;;4.30;;
46284;SDS011;32018;59.182;18.148;2024-02-16T03:43:53;4.68;;;4.38;;
46284;SDS011;32018;59.182;18.148;2024-02-16T03:46:19;4.50;;;4.20;;
46284;SDS011;32018;59.182;18.148;2024-02-16T03:48:44;4.75;;;4.45;;
46284;SDS011;32018;59.182;18.148;2024-02-16T03:51:09;4.72;;;4.32;;
46284;SDS011;32018;59.182;18.148;2024-02-16T03:53:35;4.07;;;3.78;;
46284;SDS011;32018;59.182;18.148;2024-02-16T03:56:00;4.30;;;4.00;;
46284;SDS011;32018;59.182;18.148;2024-02-16T03:58:25;4.65;;;4.35;;
46284;SDS011;32018;59.182;18.148;2024-02-16T04:00:51;4.57;;;4.30;;
46284;SDS011;32018;59.182;18.148;2024-02-16T04:03:19;4.20;;;3.90;;
46284;SDS011;32018;59.182;18.148;2024-02-16T04:05:45;4.40;;;4.10;;
46284;SDS011;32018;59.182;18.148;2024-02-16T04:08:10;4.50;;;4.20;;
46284;SDS011;32018;59.182;18.148;2024-02-16T04:10:35;3.38;;;3.17;;
46284;SDS011;32018;59.182;18.148;2024-02-16T04:13:01;3.38;;;3.17;;
46284;SDS011;32018;59.182;18.148;2024-02-16T04:15:29;3.60;;;3.35;;
46284;SDS011;32018;59.182;18.148;2024-02-16T04:17:55;3.92;;;3.63;;
46284;SDS011;32018;59.182;18.148;2024-02-16T04:20:20;3.38;;;3.17;;
46284;SDS011;32018;59.182;18.148;2024-02-16T04:22:45;3.42;;;3.22;;
46284;SDS011;32018;59.182;18.148;2024-02-16T04:25:11;3.47;;;3.28;;
46284;SDS011;32018;59.182;18.148;2024-02-16T04:27:36;3.47;;;3.17;;
46284;SDS011;32018;59.182;18.148;2024-02-16T04:30:02;3.38;;;3.17;;
46284;SDS011;32018;59.182;18.148;2024-02-16T04:32:27;3.10;;;2.90;;
46284;SDS011;32018;59.182;18.148;2024-02-16T04:34:53;3.35;;;3.15;;
46284;SDS011;32018;59.182;18.148;2024-02-16T04:37:18;3.90;;;3.60;;
46284;SDS011;32018;59.182;18.148;2024-02-16T04:39:44;4.15;;;3.88;;
46284;SDS011;32018;59.182;18.148;2024-02-16T04:42:09;3.53;;;3.30;;
46284;SDS011;32018;59.182;18.148;2024-02-16T04:44:36;3.00;;;2.80;;
46284;SDS011;32018;59.182;18.148;2024-02-16T04:47:03;3.38;;;3.17;;
46284;SDS011;32018;59.182;18.148;2024-02-16T04:49:28;3.53;;;3.22;;
46284;SDS011;32018;59.182;18.148;2024-02-16T04:51:54;3.08;;;2.85;;
46284;SDS011;32018;59.182;18.148;2024-02-16T04:54:19;2.25;;;2.15;;
46284;SDS011;32018;59.182;18.148;2024-02-16T04:56:44;3.20;;;3.00;;
46284;SDS011;32018;59.182;18.148;2024-02-16T04:59:09;3.85;;;3.65;;
46284;SDS011;32018;59.182;18.148;2024-02-16T05:01:35;3.70;;;3.40;;
46284;SDS011;32018;59.182;18.148;2024-02-16T05:04:00;3.08;;;2.88;;
46284;SDS011;32018;59.182;18.148;2024-02-16T05:06:26;3.17;;;2.97;;
46284;SDS011;32018;59.182;18.148;2024-02-16T05:08:52;3.75;;;3.50;;
46284;SDS011;32018;59.182;18.148;2024-02-16T05:11:17;3.22;;;3.03;;
46284;SDS011;32018;59.182;18.148;2024-02-16T05:13:42;2.63;;;2.50;;
46284;SDS011;32018;59.182;18.148;2024-02-16T05:16:11;2.80;;;2.60;;
46284;SDS011;32018;59.182;18.148;2024-02-16T05:18:36;2.53;;;2.40;;
46284;SDS011;32018;59.182;18.148;2024-02-16T05:21:02;2.80;;;2.60;;
46284;SDS011;32018;59.182;18.148;2024-02-16T05:23:27;3.58;;;3.38;;
46284;SDS011;32018;59.182;18.148;2024-02-16T05:25:52;2.78;;;2.63;;
46284;SDS011;32018;59.182;18.148;2024-02-16T05:28:19;2.60;;;2.40;;
46284;SDS011;32018;59.182;18.148;2024-02-16T05:30:44;2.45;;;2.25;;
46284;SDS011;32018;59.182;18.148;2024-02-16T05:33:10;2.42;;;2.30;;
46284;SDS011;32018;59.182;18.148;2024-02-16T05:35:35;2.50;;;2.40;;
46284;SDS011;32018;59.182;18.148;2024-02-16T05:38:04;2.10;;;2.00;;
46284;SDS011;32018;59.182;18.148;2024-02-16T05:40:35;2.85;;;2.65;;
46284;SDS011;32018;59.182;18.148;2024-02-16T05:43:10;1.80;;;1.70;;
46284;SDS011;32018;59.182;18.148;2024-02-16T05:45:35;2.47;;;2.38;;
46284;SDS011;32018;59.182;18.148;2024-02-16T05:48:00;1.92;;;1.83;;
46284;SDS011;32018;59.182;18.148;2024-02-16T05:50:26;2.20;;;2.10;;
46284;SDS011;32018;59.182;18.148;2024-02-16T05:52:51;1.90;;;1.80;;
46284;SDS011;32018;59.182;18.148;2024-02-16T05:55:17;2.03;;;1.92;;
46284;SDS011;32018;59.182;18.148;2024-02-16T05:57:44;2.00;;;1.90;;
46284;SDS011;32018;59.182;18.148;2024-02-16T06:00:09;1.80;;;1.70;;
46284;SDS011;32018;59.182;18.148;2024-02-16T06:02:35;1.60;;;1.50;;
46284;SDS011;32018;59.182;18.148;2024-02-16T06:05:01;2.50;;;2.30;;
46284;SDS011;32018;59.182;18.148;2024-02-16T06:07:27;1.98;;;1.88;;
46284;SDS011;32018;59.182;18.148;2024-02-16T06:09:54;1.83;;;1.73;;
46284;SDS011;32018;59.182;18.148;2024-02-16T06:12:19;1.50;;;1.40;;
46284;SDS011;32018;59.182;18.148;2024-02-16T06:14:45;1.75;;;1.63;;
46284;SDS011;32018;59.182;18.148;2024-02-16T06:17:10;1.90;;;1.80;;
46284;SDS011;32018;59.182;18.148;2024-02-16T06:19:36;2.53;;;1.63;;
46284;SDS011;32018;59.182;18.148;2024-02-16T06:22:01;1.75;;;1.65;;
46284;SDS011;32018;59.182;18.148;2024-02-16T06:24:26;1.27;;;1.25;;
46284;SDS011;32018;59.182;18.148;2024-02-16T06:26:53;1.50;;;1.40;;
46284;SDS011;32018;59.182;18.148;2024-02-16T06:29:19;1.42;;;1.30;;
46284;SDS011;32018;59.182;18.148;2024-02-16T06:31:45;1.80;;;1.70;;
46284;SDS011;32018;59.182;18.148;2024-02-16T06:34:10;1.85;;;1.75;;
46284;SDS011;32018;59.182;18.148;2024-02-16T06:36:35;1.60;;;1.50;;
46284;SDS011;32018;59.182;18.148;2024-02-16T06:39:00;1.55;;;1.45;;
46284;SDS011;32018;59.182;18.148;2024-02-16T06:41:26;1.52;;;1.42;;
46284;SDS011;32018;59.182;18.148;2024-02-16T06:43:51;1.70;;;1.50;;
46284;SDS011;32018;59.182;18.148;2024-02-16T06:46:17;6.65;;;1.30;;
46284;SDS011;32018;59.182;18.148;2024-02-16T06:48:42;1.40;;;1.30;;
46284;SDS011;32018;59.182;18.148;2024-02-16T06:51:07;1.58;;;1.48;;
46284;SDS011;32018;59.182;18.148;2024-02-16T06:53:33;1.27;;;1.17;;
46284;SDS011;32018;59.182;18.148;2024-02-16T06:55:58;1.50;;;1.40;;
46284;SDS011;32018;59.182;18.148;2024-02-16T06:58:23;1.92;;;1.83;;
46284;SDS011;32018;59.182;18.148;2024-02-16T07:00:49;1.45;;;1.40;;
46284;SDS011;32018;59.182;18.148;2024-02-16T07:03:14;1.42;;;1.33;;
46284;SDS011;32018;59.182;18.148;2024-02-16T07:05:39;1.10;;;1.10;;
46284;SDS011;32018;59.182;18.148;2024-02-16T07:08:06;1.90;;;1.80;;
46284;SDS011;32018;59.182;18.148;2024-02-16T07:10:32;1.60;;;1.50;;
46284;SDS011;32018;59.182;18.148;2024-02-16T07:12:57;1.40;;;1.33;;
46284;SDS011;32018;59.182;18.148;2024-02-16T07:15:22;1.58;;;1.48;;
46284;SDS011;32018;59.182;18.148;2024-02-16T07:17:48;1.20;;;1.17;;
46284;SDS011;32018;59.182;18.148;2024-02-16T07:20:13;1.70;;;1.60;;
46284;SDS011;32018;59.182;18.148;2024-02-16T07:22:40;1.55;;;1.45;;
46284;SDS011;32018;59.182;18.148;2024-02-16T07:25:06;1.42;;;1.33;;
46284;SDS011;32018;59.182;18.148;2024-02-16T07:27:33;1.23;;;1.20;;
46284;SDS011;32018;59.182;18.148;2024-02-16T07:29:58;3.03;;;1.30;;
46284;SDS011;32018;59.182;18.148;2024-02-16T07:32:23;1.52;;;1.42;;
46284;SDS011;32018;59.182;18.148;2024-02-16T07:34:49;1.50;;;1.40;;
46284;SDS011;32018;59.182;18.148;2024-02-16T07:37:14;1.60;;;1.50;;
46284;SDS011;32018;59.182;18.148;2024-02-16T07:39:41;1.60;;;1.33;;
46284;SDS011;32018;59.182;18.148;2024-02-16T07:42:06;1.30;;;1.20;;
46284;SDS011;32018;59.182;18.148;2024-02-16T07:44:34;1.42;;;1.33;;
46284;SDS011;32018;59.182;18.148;2024-02-16T07:46:59;1.02;;;1.02;;
46284;SDS011;32018;59.182;18.148;2024-02-16T07:49:25;1.20;;;1.20;;
46284;SDS011;32018;59.182;18.148;2024-02-16T07:51:50;1.30;;;1.20;;
46284;SDS011;32018;59.182;18.148;2024-02-16T07:54:15;1.67;;;1.58;;
46284;SDS011;32018;59.182;18.148;2024-02-16T07:56:41;1.20;;;1.20;;
46284;SDS011;32018;59.182;18.148;2024-02-16T07:59:06;1.40;;;1.30;;
46284;SDS011;32018;59.182;18.148;2024-02-16T08:01:31;1.00;;;1.00;;
46284;SDS011;32018;59.182;18.148;2024-02-16T08:03:57;1.20;;;1.10;;
46284;SDS011;32018;59.182;18.148;2024-02-16T08:06:25;1.00;;;1.00;;
46284;SDS011;32018;59.182;18.148;2024-02-16T08:08:51;1.08;;;1.08;;
46284;SDS011;32018;59.182;18.148;2024-02-16T08:11:17;1.00;;;1.00;;
46284;SDS011;32018;59.182;18.148;2024-02-16T08:13:42;1.08;;;1.00;;
46284;SDS011;32018;59.182;18.148;2024-02-16T08:16:07;1.02;;;1.02;;
46284;SDS011;32018;59.182;18.148;2024-02-16T08:18:33;1.10;;;1.10;;
46284;SDS011;32018;59.182;18.148;2024-02-16T08:20:59;1.08;;;1.00;;
46284;SDS011;32018;59.182;18.148;2024-02-16T08:23:24;1.08;;;1.08;;
46284;SDS011;32018;59.182;18.148;2024-02-16T08:25:49;1.17;;;1.17;;
46284;SDS011;32018;59.182;18.148;2024-02-16T08:28:15;1.10;;;1.00;;
46284;SDS011;32018;59.182;18.148;2024-02-16T08:30:40;1.00;;;1.00;;
46284;SDS011;32018;59.182;18.148;2024-02-16T08:33:08;1.13;;;1.10;;
46284;SDS011;32018;59.182;18.148;2024-02-16T08:35:34;1.20;;;1.20;;
46284;SDS011;32018;59.182;18.148;2024-02-16T08:37:59;1.23;;;1.13;;
46284;SDS011;32018;59.182;18.148;2024-02-16T08:40:24;1.00;;;1.00;;
46284;SDS011;32018;59.182;18.148;2024-02-16T08:42:49;0.90;;;0.90;;
46284;SDS011;32018;59.182;18.148;2024-02-16T08:45:15;0.90;;;0.90;;
46284;SDS011;32018;59.182;18.148;2024-02-16T08:47:42;1.00;;;1.00;;
46284;SDS011;32018;59.182;18.148;2024-02-16T08:50:08;1.00;;;1.00;;
46284;SDS011;32018;59.182;18.148;2024-02-16T08:52:33;0.90;;;0.90;;
46284;SDS011;32018;59.182;18.148;2024-02-16T08:54:58;0.90;;;0.90;;
46284;SDS011;32018;59.182;18.148;2024-02-16T08:57:24;1.15;;;0.75;;
46284;SDS011;32018;59.182;18.148;2024-02-16T08:59:49;1.05;;;0.90;;
46284;SDS011;32018;59.182;18.148;2024-02-16T09:02:14;1.40;;;1.30;;
46284;SDS011;32018;59.182;18.148;2024-02-16T09:04:39;2.15;;;1.95;;
46284;SDS011;32018;59.182;18.148;2024-02-16T09:07:05;1.52;;;1.30;;
46284;SDS011;32018;59.182;18.148;2024-02-16T09:09:30;1.50;;;1.33;;
46284;SDS011;32018;59.182;18.148;2024-02-16T09:11:56;1.92;;;1.70;;
46284;SDS011;32018;59.182;18.148;2024-02-16T09:14:21;1.42;;;1.17;;
46284;SDS011;32018;59.182;18.148;2024-02-16T09:16:49;1.00;;;1.00;;
46284;SDS011;32018;59.182;18.148;2024-02-16T09:19:16;1.10;;;1.00;;
46284;SDS011;32018;59.182;18.148;2024-02-16T09:21:42;1.23;;;1.13;;
46284;SDS011;32018;59.182;18.148;2024-02-16T09:24:07;1.00;;;1.00;;
46284;SDS011;32018;59.182;18.148;2024-02-16T09:26:35;0.88;;;0.88;;
46284;SDS011;32018;59.182;18.148;2024-02-16T09:29:00;1.10;;;1.10;;
46284;SDS011;32018;59.182;18.148;2024-02-16T09:31:26;1.48;;;1.10;;
46284;SDS011;32018;59.182;18.148;2024-02-16T09:33:51;1.08;;;1.08;;
46284;SDS011;32018;59.182;18.148;2024-02-16T09:36:18;1.10;;;1.10;;
46284;SDS011;32018;59.182;18.148;2024-02-16T09:38:43;2.83;;;2.63;;
46284;SDS011;32018;59.182;18.148;2024-02-16T09:41:09;1.00;;;1.00;;
46284;SDS011;32018;59.182;18.148;2024-02-16T09:43:34;1.20;;;1.20;;
46284;SDS011;32018;59.182;18.148;2024-02-16T09:45:59;2.35;;;1.50;;
46284;SDS011;32018;59.182;18.148;2024-02-16T09:48:26;1.77;;;1.30;;
46284;SDS011;32018;59.182;18.148;2024-02-16T09:50:53;1.35;;;1.25;;
46284;SDS011;32018;59.182;18.148;2024-02-16T09:53:19;1.45;;;1.30;;
46284;SDS011;32018;59.182;18.148;2024-02-16T09:55:46;1.30;;;1.30;;
46284;SDS011;32018;59.182;18.148;2024-02-16T09:58:12;1.40;;;1.30;;
46284;SDS011;32018;59.182;18.148;2024-02-16T10:00:42;1.70;;;1.60;;
46284;SDS011;32018;59.182;18.148;2024-02-16T10:03:07;1.52;;;1.42;;
46284;SDS011;32018;59.182;18.148;2024-02-16T10:05:35;1.90;;;1.80;;
46284;SDS011;32018;59.182;18.148;2024-02-16T10:08:10;2.05;;;1.90;;
46284;SDS011;32018;59.182;18.148;2024-02-16T10:10:35;4.32;;;4.07;;
46284;SDS011;32018;59.182;18.148;2024-02-16T10:13:02;5.82;;;5.43;;
46284;SDS011;32018;59.182;18.148;2024-02-16T10:15:29;2.72;;;2.53;;
46284;SDS011;32018;59.182;18.148;2024-02-16T10:18:01;1.60;;;1.50;;
46284;SDS011;32018;59.182;18.148;2024-02-16T10:20:26;1.38;;;1.27;;
46284;SDS011;32018;59.182;18.148;2024-02-16T10:23:05;1.98;;;1.42;;
46284;SDS011;32018;59.182;18.148;2024-02-16T10:25:30;1.55;;;1.40;;
46284;SDS011;32018;59.182;18.148;2024-02-16T10:27:56;1.58;;;1.45;;
46284;SDS011;32018;59.182;18.148;2024-02-16T10:30:23;2.60;;;1.35;;
46284;SDS011;32018;59.182;18.148;2024-02-16T10:32:49;2.00;;;1.90;;
46284;SDS011;32018;59.182;18.148;2024-02-16T10:35:14;2.63;;;2.45;;
46284;SDS011;32018;59.182;18.148;2024-02-16T10:37:41;1.70;;;1.60;;
46284;SDS011;32018;59.182;18.148;2024-02-16T10:40:07;1.70;;;1.60;;
46284;SDS011;32018;59.182;18.148;2024-02-16T10:42:34;1.58;;;1.30;;
46284;SDS011;32018;59.182;18.148;2024-02-16T10:45:00;1.85;;;1.60;;
46284;SDS011;32018;59.182;18.148;2024-02-16T10:47:26;2.72;;;1.65;;
46284;SDS011;32018;59.182;18.148;2024-02-16T10:49:52;1.90;;;1.60;;
46284;SDS011;32018;59.182;18.148;2024-02-16T10:52:18;1.45;;;1.27;;
46284;SDS011;32018;59.182;18.148;2024-02-16T10:54:44;1.70;;;1.50;;
46284;SDS011;32018;59.182;18.148;2024-02-16T10:57:09;1.33;;;1.23;;
46284;SDS011;32018;59.182;18.148;2024-02-16T10:59:41;1.65;;;1.55;;
46284;SDS011;32018;59.182;18.148;2024-02-16T11:02:08;1.90;;;1.70;;
46284;SDS011;32018;59.182;18.148;2024-02-16T11:04:38;3.10;;;2.88;;
46284;SDS011;32018;59.182;18.148;2024-02-16T11:07:10;3.55;;;3.30;;
46284;SDS011;32018;59.182;18.148;2024-02-16T11:09:36;2.20;;;1.95;;
46284;SDS011;32018;59.182;18.148;2024-02-16T11:12:02;1.98;;;1.88;;
46284;SDS011;32018;59.182;18.148;2024-02-16T11:14:49;2.42;;;2.30;;
46284;SDS011;32018;59.182;18.148;2024-02-16T11:17:21;2.05;;;1.95;;
46284;SDS011;32018;59.182;18.148;2024-02-16T11:19:48;2.55;;;2.35;;
46284;SDS011;32018;59.182;18.148;2024-02-16T11:22:19;2.28;;;2.08;;
46284;SDS011;32018;59.182;18.148;2024-02-16T11:24:46;2.03;;;1.92;;
46284;SDS011;32018;59.182;18.148;2024-02-16T11:27:11;1.60;;;1.50;;
46284;SDS011;32018;59.182;18.148;2024-02-16T11:29:37;1.95;;;1.85;;
46284;SDS011;32018;59.182;18.148;2024-02-16T11:32:06;1.60;;;1.50;;
46284;SDS011;32018;59.182;18.148;2024-02-16T11:34:32;2.25;;;2.13;;
46284;SDS011;32018;59.182;18.148;2024-02-16T11:36:58;8.27;;;7.68;;
46284;SDS011;32018;59.182;18.148;2024-02-16T11:39:24;1.75;;;1.65;;
46284;SDS011;32018;59.182;18.148;2024-02-16T11:44:31;1.90;;;1.80;;
46284;SDS011;32018;59.182;18.148;2024-02-16T11:46:57;2.05;;;1.95;;
46284;SDS011;32018;59.182;18.148;2024-02-16T11:49:22;2.30;;;2.10;;
46284;SDS011;32018;59.182;18.148;2024-02-16T11:51:48;2.10;;;2.00;;
46284;SDS011;32018;59.182;18.148;2024-02-16T11:54:13;4.75;;;4.28;;
46284;SDS011;32018;59.182;18.148;2024-02-16T11:56:38;2.83;;;2.63;;
46284;SDS011;32018;59.182;18.148;2024-02-16T11:59:05;2.38;;;2.28;;
46284;SDS011;32018;59.182;18.148;2024-02-16T12:01:31;1.90;;;1.80;;
46284;SDS011;32018;59.182;18.148;2024-02-16T12:03:58;2.40;;;2.20;;
46284;SDS011;32018;59.182;18.148;2024-02-16T12:06:23;2.13;;;2.03;;
46284;SDS011;32018;59.182;18.148;2024-02-16T12:08:49;1.20;;;1.20;;
46284;SDS011;32018;59.182;18.148;2024-02-16T12:11:14;1.40;;;1.30;;
46284;SDS011;32018;59.182;18.148;2024-02-16T12:13:40;2.20;;;1.20;;
46284;SDS011;32018;59.182;18.148;2024-02-16T12:16:05;1.40;;;1.30;;
46284;SDS011;32018;59.182;18.148;2024-02-16T12:18:31;1.25;;;1.15;;
46284;SDS011;32018;59.182;18.148;2024-02-16T12:21:00;1.60;;;1.50;;
46284;SDS011;32018;59.182;18.148;2024-02-16T12:23:26;1.40;;;1.30;;
46284;SDS011;32018;59.182;18.148;2024-02-16T12:25:51;1.10;;;1.10;;
46284;SDS011;32018;59.182;18.148;2024-02-16T12:28:17;1.02;;;1.02;;
46284;SDS011;32018;59.182;18.148;2024-02-16T12:30:43;1.20;;;1.20;;
46284;SDS011;32018;59.182;18.148;2024-02-16T12:33:08;1.00;;;1.00;;
46284;SDS011;32018;59.182;18.148;2024-02-16T12:35:34;1.13;;;1.02;;
46284;SDS011;32018;59.182;18.148;2024-02-16T12:38:00;1.20;;;1.13;;
46284;SDS011;32018;59.182;18.148;2024-02-16T12:40:25;1.00;;;1.00;;
46284;SDS011;32018;59.182;18.148;2024-02-16T12:42:50;1.13;;;1.02;;
46284;SDS011;32018;59.182;18.148;2024-02-16T12:45:15;1.00;;;1.00;;
46284;SDS011;32018;59.182;18.148;2024-02-16T12:47:41;1.00;;;1.00;;
46284;SDS011;32018;59.182;18.148;2024-02-16T12:50:06;1.27;;;1.17;;
46284;SDS011;32018;59.182;18.148;2024-02-16T12:52:32;1.38;;;1.20;;
46284;SDS011;32018;59.182;18.148;2024-02-16T12:54:59;1.25;;;1.05;;
46284;SDS011;32018;59.182;18.148;2024-02-16T12:57:24;1.00;;;1.00;;
46284;SDS011;32018;59.182;18.148;2024-02-16T12:59:49;1.52;;;1.42;;
46284;SDS011;32018;59.182;18.148;2024-02-16T13:02:14;1.30;;;1.20;;
46284;SDS011;32018;59.182;18.148;2024-02-16T13:04:40;1.20;;;1.20;;
46284;SDS011;32018;59.182;18.148;2024-02-16T13:07:05;1.10;;;1.10;;
46284;SDS011;32018;59.182;18.148;2024-02-16T13:09:30;1.52;;;1.20;;
46284;SDS011;32018;59.182;18.148;2024-02-16T13:11:56;1.10;;;1.10;;
46284;SDS011;32018;59.182;18.148;2024-02-16T13:14:21;1.10;;;1.00;;
46284;SDS011;32018;59.182;18.148;2024-02-16T13:16:46;1.30;;;1.20;;
46284;SDS011;32018;59.182;18.148;2024-02-16T13:19:12;1.10;;;1.10;;
46284;SDS011;32018;59.182;18.148;2024-02-16T13:21:38;1.23;;;1.15;;
46284;SDS011;32018;59.182;18.148;2024-02-16T13:24:03;1.50;;;1.40;;
46284;SDS011;32018;59.182;18.148;2024-02-16T13:26:29;1.20;;;1.15;;
46284;SDS011;32018;59.182;18.148;2024-02-16T13:28:55;1.20;;;1.10;;
46284;SDS011;32018;59.182;18.148;2024-02-16T13:31:20;1.35;;;1.25;;
46284;SDS011;32018;59.182;18.148;2024-02-16T13:33:46;1.00;;;1.00;;
46284;SDS011;32018;59.182;18.148;2024-02-16T13:36:11;1.17;;;1.08;;
46284;SDS011;32018;59.182;18.148;2024-02-16T13:38:36;1.13;;;1.13;;
46284;SDS011;32018;59.182;18.148;2024-02-16T13:41:02;1.05;;;0.90;;
46284;SDS011;32018;59.182;18.148;2024-02-16T13:43:30;0.85;;;0.85;;
46284;SDS011;32018;59.182;18.148;2024-02-16T13:45:55;1.00;;;1.00;;
46284;SDS011;32018;59.182;18.148;2024-02-16T13:48:22;1.02;;;1.02;;
46284;SDS011;32018;59.182;18.148;2024-02-16T13:50:48;1.10;;;1.00;;
46284;SDS011;32018;59.182;18.148;2024-02-16T13:53:13;1.40;;;0.90;;
46284;SDS011;32018;59.182;18.148;2024-02-16T13:55:39;0.90;;;0.90;;
46284;SDS011;32018;59.182;18.148;2024-02-16T13:58:04;1.10;;;0.95;;
46284;SDS011;32018;59.182;18.148;2024-02-16T14:00:29;0.80;;;0.80;;
46284;SDS011;32018;59.182;18.148;2024-02-16T14:02:55;0.80;;;0.80;;
46284;SDS011;32018;59.182;18.148;2024-02-16T14:05:20;0.95;;;0.93;;
46284;SDS011;32018;59.182;18.148;2024-02-16T14:07:47;1.23;;;0.80;;
46284;SDS011;32018;59.182;18.148;2024-02-16T14:10:13;0.90;;;0.88;;
46284;SDS011;32018;59.182;18.148;2024-02-16T14:12:38;2.40;;;2.25;;
46284;SDS011;32018;59.182;18.148;2024-02-16T14:15:04;1.98;;;1.85;;
46284;SDS011;32018;59.182;18.148;2024-02-16T14:17:29;1.10;;;1.10;;
46284;SDS011;32018;59.182;18.148;2024-02-16T14:19:54;1.23;;;1.13;;
46284;SDS011;32018;59.182;18.148;2024-02-16T14:22:20;1.40;;;1.30;;
46284;SDS011;32018;59.182;18.148;2024-02-16T14:24:45;1.50;;;1.40;;
46284;SDS011;32018;59.182;18.148;2024-02-16T14:27:10;1.10;;;1.00;;